createdAt,value
2022-12-08T00:02:07.690Z,100614.28
2022-12-08T00:06:43.344Z,100606.81
2022-12-08T00:10:49.333Z,100609.22
2022-12-08T00:14:52.815Z,100596.41
2022-12-08T00:18:55.559Z,100588.97
2022-12-08T00:22:58.347Z,100584.63
2022-12-08T00:27:02.928Z,100577.78
2022-12-08T00:31:09.500Z,100576.13
2022-12-08T00:35:12.174Z,100567.44
2022-12-08T00:39:16.692Z,100555.88
2022-12-08T00:43:20.824Z,100559.59
2022-12-08T00:47:24.959Z,100553.38
2022-12-08T00:51:27.941Z,100555.25
2022-12-08T00:55:30.718Z,100553.56
2022-12-08T00:59:34.870Z,100556.91
2022-12-08T01:03:38.460Z,100547.41
2022-12-08T01:07:41.335Z,100544.97
2022-12-08T01:11:45.036Z,100535.69
2022-12-08T01:15:49.109Z,100543.38
2022-12-08T01:19:52.319Z,100539.88
2022-12-08T01:23:55.406Z,100532.44
2022-12-08T01:27:58.124Z,100526.44
2022-12-08T01:32:02.443Z,100528.91
2022-12-08T01:36:05.726Z,100531.19
2022-12-08T01:40:09.750Z,100526.50
2022-12-08T01:44:50.205Z,100537.44
2022-12-08T01:48:57.782Z,100533.25
2022-12-08T01:53:03.246Z,100530.56
2022-12-08T01:57:11.159Z,100526.25
2022-12-08T02:01:14.159Z,100524.56
2022-12-08T02:05:20.570Z,100525.81
2022-12-08T02:09:23.578Z,100522.16
2022-12-08T02:13:26.704Z,100519.88
2022-12-08T02:17:44.549Z,100512.66
2022-12-08T02:21:55.538Z,100506.69
2022-12-08T02:26:30.358Z,100504.84
2022-12-08T02:30:45.816Z,100486.28
2022-12-08T02:35:00.598Z,100483.41
2022-12-08T02:39:13.633Z,100475.75
2022-12-08T02:43:22.854Z,100474.78
2022-12-08T02:47:27.812Z,100460.56
2022-12-08T02:51:31.948Z,100452.69
2022-12-08T02:55:44.287Z,100444.25
2022-12-08T03:00:03.072Z,100444.66
2022-12-08T03:04:11.247Z,100442.84
2022-12-08T03:08:22.765Z,100447.16
2022-12-08T03:12:31.351Z,100442.00
2022-12-08T03:16:37.860Z,100432.31
2022-12-08T03:20:42.051Z,100413.91
2022-12-08T03:24:47.684Z,100415.78
2022-12-08T03:28:50.429Z,100411.84
2022-12-08T03:32:57.421Z,100406.47
2022-12-08T03:37:02.456Z,100402.53
2022-12-08T03:41:21.807Z,100396.78
2022-12-08T03:45:24.576Z,100393.66
2022-12-08T03:49:27.308Z,100395.94
2022-12-08T03:53:30.068Z,100389.94
2022-12-08T03:57:34.146Z,100387.47
2022-12-08T04:01:37.204Z,100373.63
2022-12-08T04:05:39.972Z,100376.13
2022-12-08T04:09:42.722Z,100363.91
2022-12-08T04:13:47.306Z,100362.69
2022-12-08T04:17:50.053Z,100367.41
2022-12-08T04:21:52.902Z,100362.84
2022-12-08T04:25:55.752Z,100358.94
2022-12-08T04:29:59.809Z,100359.16
2022-12-08T04:34:02.510Z,100359.56
2022-12-08T04:38:05.260Z,100354.81
2022-12-08T04:42:07.942Z,100356.06
2022-12-08T04:46:12.184Z,100349.25
2022-12-08T04:50:15.294Z,100346.75
2022-12-08T04:54:18.019Z,100346.94
2022-12-08T04:58:21.626Z,100341.78
2022-12-08T05:02:25.821Z,100349.84
2022-12-08T05:06:28.573Z,100340.75
2022-12-08T05:10:31.328Z,100340.97
2022-12-08T05:14:34.050Z,100326.03
2022-12-08T05:18:39.052Z,100327.91
2022-12-08T05:22:41.784Z,100343.03
2022-12-08T05:26:44.501Z,100334.53
2022-12-08T05:30:47.253Z,100340.75
2022-12-08T05:34:51.335Z,100332.69
2022-12-08T05:38:54.043Z,100333.50
2022-12-08T05:42:56.762Z,100332.28
2022-12-08T05:46:59.481Z,100327.72
2022-12-08T05:51:03.612Z,100328.13
2022-12-08T05:55:07.091Z,100317.56
2022-12-08T05:59:09.824Z,100317.56
2022-12-08T06:03:13.230Z,100317.16
2022-12-08T06:07:17.502Z,100311.97
2022-12-08T06:11:21.486Z,100312.19
2022-12-08T06:15:24.318Z,100311.75
2022-12-08T06:19:27.042Z,100299.13
2022-12-08T06:23:31.156Z,100309.50
2022-12-08T06:27:34.658Z,100314.47
2022-12-08T06:31:37.441Z,100303.91
2022-12-08T06:35:40.215Z,100318.41
2022-12-08T06:39:44.275Z,100324.00
2022-12-08T06:43:47.062Z,100324.81
2022-12-08T06:47:49.786Z,100325.88
2022-12-08T06:51:52.507Z,100319.66
2022-12-08T06:56:00.063Z,100326.25
2022-12-08T07:00:03.910Z,100331.03
2022-12-08T07:04:06.932Z,100339.69
2022-12-08T07:08:10.294Z,100330.59
2022-12-08T07:12:14.440Z,100330.19
2022-12-08T07:16:17.224Z,100327.28
2022-12-08T07:20:20.124Z,100333.09
2022-12-08T07:24:23.029Z,100331.44
2022-12-08T07:28:27.129Z,100336.19
2022-12-08T07:32:29.938Z,100332.28
2022-12-08T07:36:33.494Z,100341.56
2022-12-08T07:40:36.780Z,100337.00
2022-12-08T07:44:40.885Z,100344.03
2022-12-08T07:48:43.824Z,100333.50
2022-12-08T07:52:46.600Z,100336.41
2022-12-08T07:56:49.563Z,100345.28
2022-12-08T08:00:53.892Z,100340.94
2022-12-08T08:04:57.013Z,100342.19
2022-12-08T08:08:59.751Z,100346.75
2022-12-08T08:13:02.663Z,100349.44
2022-12-08T08:17:06.950Z,100336.59
2022-12-08T08:21:43.372Z,100349.84
2022-12-08T08:25:33.015Z,100355.84
2022-12-08T08:29:35.718Z,100361.63
2022-12-08T08:33:39.865Z,100367.41
2022-12-08T08:37:48.373Z,100371.97
2022-12-08T08:41:51.721Z,100369.91
2022-12-08T08:45:54.541Z,100379.84
2022-12-08T08:49:58.647Z,100382.31
2022-12-08T08:54:01.433Z,100375.91
2022-12-08T08:58:04.253Z,100370.50
2022-12-08T09:02:07.084Z,100374.84
2022-12-08T09:06:13.366Z,100371.56
2022-12-08T09:10:16.324Z,100375.91
2022-12-08T09:14:18.993Z,100374.47
2022-12-08T09:18:21.837Z,100369.09
2022-12-08T09:22:25.931Z,100376.53
2022-12-08T09:26:29.396Z,100368.66
2022-12-08T09:30:32.229Z,100366.19
2022-12-08T09:34:35.031Z,100376.97
2022-12-08T09:38:39.747Z,100367.03
2022-12-08T09:42:48.712Z,100374.66
2022-12-08T09:46:53.795Z,100365.56
2022-12-08T09:50:58.871Z,100367.25
2022-12-08T09:55:10.453Z,100364.56
2022-12-08T09:59:24.730Z,100375.72
2022-12-08T10:03:30.457Z,100369.09
2022-12-08T10:07:40.155Z,100366.00
2022-12-08T10:11:52.371Z,100358.34
2022-12-08T10:16:08.666Z,100349.03
2022-12-08T10:20:16.249Z,100351.28
2022-12-08T10:24:26.982Z,100344.03
2022-12-08T10:28:33.015Z,100338.66
2022-12-08T10:32:36.438Z,100328.53
2022-12-08T10:36:50.819Z,100329.38
2022-12-08T10:41:00.554Z,100325.84
2022-12-08T10:45:21.382Z,100317.78
2022-12-08T10:49:32.186Z,100327.72
2022-12-08T10:53:45.300Z,100327.72
2022-12-08T10:57:49.459Z,100315.09
2022-12-08T11:01:55.394Z,100323.31
2022-12-08T11:06:07.095Z,100321.66
2022-12-08T11:10:18.915Z,100315.25
2022-12-08T11:14:25.408Z,100317.91
2022-12-08T11:18:40.362Z,100316.69
2022-12-08T11:22:44.769Z,100318.97
2022-12-08T11:26:51.220Z,100327.47
2022-12-08T11:30:59.228Z,100326.22
2022-12-08T11:35:05.425Z,100320.59
2022-12-08T11:39:13.546Z,100317.31
2022-12-08T11:43:20.385Z,100317.72
2022-12-08T11:47:27.425Z,100317.72
2022-12-08T11:51:34.512Z,100322.88
2022-12-08T11:55:45.204Z,100307.78
2022-12-08T11:59:52.962Z,100305.91
2022-12-08T12:04:04.242Z,100306.09
2022-12-08T12:08:25.713Z,100314.59
2022-12-08T12:12:43.869Z,100308.97
2022-12-08T12:17:01.911Z,100314.56
2022-12-08T12:21:12.272Z,100317.91
2022-12-08T12:25:22.068Z,100316.50
2022-12-08T12:29:27.654Z,100310.47
2022-12-08T12:33:31.528Z,100309.00
2022-12-08T12:37:39.441Z,100299.03
2022-12-08T12:41:49.290Z,100301.06
2022-12-08T12:46:39.317Z,100298.75
2022-12-08T12:50:44.377Z,100290.88
2022-12-08T12:55:20.674Z,100295.88
2022-12-08T12:59:41.010Z,100292.97
2022-12-08T13:03:47.177Z,100287.13
2022-12-08T13:07:54.061Z,100291.28
2022-12-08T13:12:00.155Z,100291.50
2022-12-08T13:16:19.216Z,100289.63
2022-12-08T13:20:24.599Z,100280.09
2022-12-08T13:24:34.490Z,100291.09
2022-12-08T13:29:05.687Z,100296.06
2022-12-08T13:33:18.073Z,100283.88
2022-12-08T13:37:26.235Z,100286.81
2022-12-08T13:41:36.443Z,100279.75
2022-12-08T13:46:48.712Z,100286.59
2022-12-08T13:56:05.565Z,100276.00
2022-12-08T13:59:25.395Z,100280.97
2022-12-08T14:03:29.412Z,100282.03
2022-12-08T14:07:34.903Z,100283.88
2022-12-08T14:11:39.744Z,100282.84
2022-12-08T14:15:42.853Z,100279.53
2022-12-08T14:19:53.471Z,100285.19
2022-12-08T14:24:02.727Z,100290.34
2022-12-08T14:28:06.377Z,100278.56
2022-12-08T14:32:22.784Z,100277.75
2022-12-08T14:36:25.958Z,100280.25
2022-12-08T14:40:33.940Z,100279.03
2022-12-08T14:44:41.374Z,100278.81
2022-12-08T14:48:44.633Z,100281.72
2022-12-08T14:52:48.129Z,100277.78
2022-12-08T14:56:55.958Z,100286.06
2022-12-08T15:01:01.672Z,100292.91
2022-12-08T15:05:11.365Z,100291.25
2022-12-08T15:09:28.031Z,100288.56
2022-12-08T15:13:32.266Z,100287.50
2022-12-08T15:17:41.567Z,100291.03
2022-12-08T15:21:45.933Z,100299.53
2022-12-08T15:25:49.484Z,100290.63
2022-12-08T15:29:54.631Z,100294.75
2022-12-08T15:33:57.502Z,100297.88
2022-12-08T15:38:02.274Z,100299.09
2022-12-08T15:42:10.878Z,100300.13
2022-12-08T15:46:15.159Z,100298.50
2022-12-08T15:50:19.862Z,100305.72
2022-12-08T15:54:22.951Z,100312.97
2022-12-08T16:03:22.401Z,100307.81
2022-12-08T16:07:22.553Z,100313.38
2022-12-08T16:12:05.310Z,100315.47
2022-12-08T16:16:08.433Z,100318.78
2022-12-08T16:20:16.704Z,100314.44
2022-12-08T16:24:19.934Z,100314.25
2022-12-08T16:28:52.718Z,100312.41
2022-12-08T16:32:45.603Z,100310.75
2022-12-08T16:36:52.302Z,100312.59
2022-12-08T16:41:12.573Z,100314.28
2022-12-08T16:45:18.017Z,100320.06
2022-12-08T16:49:20.715Z,100325.22
2022-12-08T16:53:24.916Z,100324.59
2022-12-08T16:57:28.499Z,100326.06
2022-12-08T17:01:31.385Z,100320.69
2022-12-08T17:05:34.520Z,100323.97
2022-12-08T17:09:38.621Z,100315.28
2022-12-08T17:13:42.936Z,100325.00
2022-12-08T17:17:45.645Z,100328.09
2022-12-08T17:21:48.394Z,100338.66
2022-12-08T17:26:00.571Z,100329.97
2022-12-08T17:30:03.857Z,100328.53
2022-12-08T17:34:10.310Z,100327.28
2022-12-08T17:38:13.145Z,100321.50
2022-12-08T17:42:17.212Z,100323.56
2022-12-08T17:46:20.625Z,100321.09
2022-12-08T17:50:23.453Z,100329.38
2022-12-08T17:54:27.662Z,100318.59
2022-12-08T17:58:32.349Z,100325.63
2022-12-08T18:02:37.762Z,100318.00
2022-12-08T18:06:41.360Z,100319.84
2022-12-08T18:10:44.212Z,100315.72
2022-12-08T18:14:48.696Z,100316.53
2022-12-08T18:18:51.894Z,100323.78
2022-12-08T18:22:54.601Z,100319.22
2022-12-08T18:26:57.716Z,100312.81
2022-12-08T18:31:02.195Z,100313.63
2022-12-08T18:35:05.366Z,100313.03
2022-12-08T18:39:10.907Z,100315.09
2022-12-08T18:43:17.241Z,100320.69
2022-12-08T18:47:21.285Z,100319.22
2022-12-08T18:51:25.429Z,100333.91
2022-12-08T18:55:28.198Z,100322.31
2022-12-08T18:59:31.063Z,100322.31
2022-12-08T19:03:35.171Z,100331.84
2022-12-08T19:07:38.156Z,100325.84
2022-12-08T19:11:41.114Z,100327.72
2022-12-08T19:15:43.939Z,100340.72
2022-12-08T19:19:48.183Z,100336.19
2022-12-08T19:23:51.664Z,100340.13
2022-12-08T19:27:54.372Z,100334.31
2022-12-08T19:31:57.360Z,100329.56
2022-12-08T19:36:06.203Z,100331.44
2022-12-08T19:40:30.985Z,100322.13
2022-12-08T19:44:51.362Z,100327.28
2022-12-08T19:48:55.414Z,100330.59
2022-12-08T19:52:59.708Z,100332.44
2022-12-08T19:57:02.858Z,100330.19
2022-12-08T20:01:05.704Z,100333.47
2022-12-08T20:05:09.559Z,100336.97
2022-12-08T20:09:14.291Z,100341.72
2022-12-08T20:13:34.904Z,100347.31
2022-12-08T20:17:37.794Z,100343.59
2022-12-08T20:21:41.003Z,100348.38
2022-12-08T20:25:47.603Z,100341.97
2022-12-08T20:29:50.574Z,100339.06
2022-12-08T20:33:53.700Z,100336.16
2022-12-08T20:37:56.518Z,100342.34
2022-12-08T20:42:00.669Z,100344.63
2022-12-08T20:46:07.050Z,100341.72
2022-12-08T20:50:11.022Z,100340.06
2022-12-08T20:54:14.164Z,100343.56
2022-12-08T20:58:18.313Z,100350.38
2022-12-08T21:02:21.172Z,100355.75
2022-12-08T21:06:26.990Z,100347.19
2022-12-08T21:10:29.814Z,100352.94
2022-12-08T21:14:34.006Z,100352.50
2022-12-08T21:18:39.728Z,100354.13
2022-12-08T21:22:42.989Z,100347.06
2022-12-08T21:26:45.910Z,100349.53
2022-12-08T21:30:50.203Z,100357.97
2022-12-08T21:34:54.547Z,100366.25
2022-12-08T21:39:00.690Z,100359.22
2022-12-08T21:43:04.851Z,100352.78
2022-12-08T21:47:09.004Z,100356.50
2022-12-08T21:51:12.262Z,100353.81
2022-12-08T21:55:17.023Z,100350.88
2022-12-08T21:59:20.829Z,100362.00
2022-12-08T22:03:25.208Z,100358.69
2022-12-08T22:07:28.068Z,100366.06
2022-12-08T22:11:31.219Z,100361.91
2022-12-08T22:15:34.207Z,100356.75
2022-12-08T22:19:38.510Z,100355.94
2022-12-08T22:23:41.464Z,100358.59
2022-12-08T22:27:44.128Z,100353.03
2022-12-08T22:31:47.144Z,100349.16
2022-12-08T22:35:57.987Z,100342.34
2022-12-08T22:40:00.889Z,100349.19
2022-12-08T22:44:06.512Z,100340.72
2022-12-08T22:48:09.450Z,100342.22
2022-12-08T22:52:13.584Z,100349.59
2022-12-08T22:56:17.680Z,100337.44
2022-12-08T23:00:21.742Z,100343.41
2022-12-08T23:04:24.631Z,100340.53
2022-12-08T23:08:28.880Z,100342.63
2022-12-08T23:12:32.371Z,100345.56
2022-12-08T23:16:35.330Z,100340.59
2022-12-08T23:20:39.314Z,100343.72
2022-12-08T23:24:43.444Z,100343.97
2022-12-08T23:28:46.182Z,100338.41
2022-12-08T23:32:49.190Z,100351.41
2022-12-08T23:36:52.092Z,100352.06
2022-12-08T23:40:56.357Z,100346.28
2022-12-08T23:44:59.115Z,100342.78
2022-12-08T23:49:02.332Z,100342.56
2022-12-08T23:53:05.382Z,100338.84
2022-12-08T23:57:09.570Z,100345.03
